createdAt,value
2016-11-24T00:01:02.728Z,928.57
2016-11-24T00:02:15.196Z,928.57
2016-11-24T00:03:27.613Z,928.59
2016-11-24T00:05:11.879Z,928.63
2016-11-24T00:06:25.359Z,928.65
2016-11-24T00:08:09.467Z,928.68
2016-11-24T00:09:22.022Z,928.69
2016-11-24T00:10:35.021Z,928.72
2016-11-24T00:11:47.996Z,928.76
2016-11-24T00:13:00.896Z,928.75
2016-11-24T00:14:14.438Z,928.75
2016-11-24T00:15:27.467Z,928.77
2016-11-24T00:16:39.451Z,928.78
2016-11-24T00:17:52.416Z,928.84
2016-11-24T00:19:05.897Z,928.86
2016-11-24T00:20:18.493Z,928.89
2016-11-24T00:21:32.095Z,928.9
2016-11-24T00:22:45.114Z,928.92
2016-11-24T00:23:58.598Z,928.92
2016-11-24T00:25:12.117Z,928.89
2016-11-24T00:26:24.590Z,928.92
2016-11-24T00:28:08.622Z,928.92
2016-11-24T00:29:21.022Z,928.92
2016-11-24T00:30:34.651Z,928.95
2016-11-24T00:31:47.050Z,928.99
2016-11-24T00:33:00.070Z,929.04
2016-11-24T00:34:12.992Z,929.05
2016-11-24T00:35:25.437Z,929.09
2016-11-24T00:36:37.412Z,929.11
2016-11-24T00:37:49.848Z,929.15
2016-11-24T00:39:01.744Z,929.1
2016-11-24T00:40:15.299Z,929.16
2016-11-24T00:41:27.239Z,929.16
2016-11-24T00:42:40.248Z,929.19
2016-11-24T00:43:53.202Z,929.17
2016-11-24T00:45:06.703Z,929.18
2016-11-24T00:46:19.690Z,929.17
2016-11-24T00:47:32.676Z,929.21
2016-11-24T00:48:45.607Z,929.24
2016-11-24T00:49:58.553Z,929.23
2016-11-24T00:51:11.022Z,929.26
2016-11-24T00:52:24.746Z,929.23
2016-11-24T00:53:38.270Z,929.22
2016-11-24T00:54:50.233Z,929.24
2016-11-24T00:56:03.168Z,929.23
2016-11-24T00:57:16.062Z,929.2
2016-11-24T00:58:29.600Z,929.24
2016-11-24T00:59:43.113Z,929.28
2016-11-24T01:00:56.120Z,929.27
2016-11-24T01:02:08.107Z,929.26
2016-11-24T01:03:20.653Z,929.29
2016-11-24T01:04:33.606Z,929.36
2016-11-24T01:05:46.079Z,929.41
2016-11-24T01:06:59.017Z,929.38
2016-11-24T01:08:11.986Z,929.36
2016-11-24T01:09:24.387Z,929.4
2016-11-24T01:11:08.439Z,929.39
2016-11-24T01:12:21.438Z,929.4
2016-11-24T01:13:34.999Z,929.4
2016-11-24T01:14:47.433Z,929.41
2016-11-24T01:16:00.432Z,929.42
2016-11-24T01:17:13.985Z,929.41
2016-11-24T01:18:26.972Z,929.41
2016-11-24T01:20:11.661Z,929.5
2016-11-24T01:21:24.609Z,929.49
2016-11-24T01:22:36.462Z,929.52
2016-11-24T01:23:48.341Z,929.52
2016-11-24T01:25:00.905Z,929.53
2016-11-24T01:26:11.773Z,929.54
2016-11-24T01:27:24.721Z,929.52
2016-11-24T01:28:36.045Z,929.52
2016-11-24T01:29:49.025Z,929.53
2016-11-24T01:31:02.477Z,929.52
2016-11-24T01:32:15.404Z,929.52
2016-11-24T01:33:27.810Z,929.52
2016-11-24T01:34:40.731Z,929.51
2016-11-24T01:35:54.337Z,929.47
2016-11-24T01:37:06.233Z,929.48
2016-11-24T01:38:18.188Z,929.51
2016-11-24T01:39:31.147Z,929.54
2016-11-24T01:40:44.098Z,929.54
2016-11-24T01:41:57.059Z,929.55
2016-11-24T01:43:08.988Z,929.52
2016-11-24T01:44:21.539Z,929.55
2016-11-24T01:45:33.465Z,929.5
2016-11-24T01:46:47.109Z,929.55
2016-11-24T01:48:30.106Z,929.56
2016-11-24T01:49:42.539Z,929.53
2016-11-24T01:50:55.508Z,929.55
2016-11-24T01:52:07.447Z,929.56
2016-11-24T01:53:20.412Z,929.56
2016-11-24T01:54:33.842Z,929.56
2016-11-24T01:55:47.350Z,929.54
2016-11-24T01:57:00.333Z,929.6
2016-11-24T01:58:12.831Z,929.57
2016-11-24T01:59:39.116Z,929.57
2016-11-24T02:00:52.570Z,929.59
2016-11-24T02:02:05.542Z,929.59
2016-11-24T02:03:19.170Z,929.6
2016-11-24T02:04:32.812Z,929.62
2016-11-24T02:05:45.811Z,929.67
2016-11-24T02:06:58.734Z,929.65
2016-11-24T02:08:42.943Z,929.65
2016-11-24T02:09:56.417Z,929.67
2016-11-24T02:11:09.322Z,929.68
2016-11-24T02:12:20.149Z,929.72
2016-11-24T02:13:33.446Z,929.7
2016-11-24T02:14:46.837Z,929.67
2016-11-24T02:15:59.777Z,929.67
2016-11-24T02:17:13.317Z,929.71
2016-11-24T02:18:26.820Z,929.71
2016-11-24T02:19:39.959Z,929.7
2016-11-24T02:20:52.416Z,929.72
2016-11-24T02:22:05.451Z,929.7
2016-11-24T02:23:18.348Z,929.76
2016-11-24T02:24:31.365Z,929.71
2016-11-24T02:25:44.863Z,929.73
2016-11-24T02:26:57.288Z,929.74
2016-11-24T02:28:10.843Z,929.74
2016-11-24T02:29:23.287Z,929.75
2016-11-24T02:30:36.991Z,929.73
2016-11-24T02:31:49.434Z,929.72
2016-11-24T02:33:01.919Z,929.73
2016-11-24T02:34:15.464Z,929.74
2016-11-24T02:35:29.080Z,929.71
2016-11-24T02:36:42.594Z,929.75
2016-11-24T02:37:56.052Z,929.73
2016-11-24T02:39:09.542Z,929.76
2016-11-24T02:40:23.060Z,929.76
2016-11-24T02:41:36.064Z,929.74
2016-11-24T02:42:49.012Z,929.73
2016-11-24T02:45:04.787Z,929.73
2016-11-24T02:46:17.903Z,929.75
2016-11-24T02:47:29.908Z,929.67
2016-11-24T02:48:42.913Z,929.69
2016-11-24T02:49:55.908Z,929.68
2016-11-24T02:51:08.376Z,929.71
2016-11-24T02:52:21.428Z,929.69
2016-11-24T02:54:04.930Z,929.63
2016-11-24T02:55:17.364Z,929.65
2016-11-24T02:56:30.956Z,929.66
2016-11-24T02:57:43.890Z,929.71
2016-11-24T02:58:56.299Z,929.66
2016-11-24T03:00:08.682Z,929.66
2016-11-24T03:01:21.185Z,929.65
2016-11-24T03:02:34.801Z,929.63
2016-11-24T03:03:46.705Z,929.67
2016-11-24T03:04:58.115Z,929.63
2016-11-24T03:06:11.710Z,929.62
2016-11-24T03:07:24.317Z,929.64
2016-11-24T03:09:33.677Z,929.59
2016-11-24T03:10:46.214Z,929.56
2016-11-24T03:11:58.711Z,929.51
2016-11-24T03:13:11.310Z,929.51
2016-11-24T03:14:23.797Z,929.5
2016-11-24T03:15:37.367Z,929.44
2016-11-24T03:17:03.735Z,929.43
2016-11-24T03:18:47.977Z,929.4
2016-11-24T03:20:00.432Z,929.41
2016-11-24T03:21:13.494Z,929.42
2016-11-24T03:22:25.963Z,929.44
2016-11-24T03:23:38.475Z,929.43
2016-11-24T03:24:51.571Z,929.45
2016-11-24T03:26:03.968Z,929.46
2016-11-24T03:27:16.406Z,929.43
2016-11-24T03:29:00.639Z,929.44
2016-11-24T03:30:13.623Z,929.41
2016-11-24T03:31:26.149Z,929.42
2016-11-24T03:32:38.347Z,929.39
2016-11-24T03:33:51.377Z,929.38
2016-11-24T03:35:04.356Z,929.39
2016-11-24T03:36:16.409Z,929.38
2016-11-24T03:37:28.557Z,929.36
2016-11-24T03:38:42.149Z,929.43
2016-11-24T03:39:55.021Z,929.42
2016-11-24T03:41:07.596Z,929.38
2016-11-24T03:42:51.176Z,929.35
2016-11-24T03:44:03.689Z,929.39
2016-11-24T03:45:16.814Z,929.39
2016-11-24T03:46:29.317Z,929.38
2016-11-24T03:47:42.888Z,929.37
2016-11-24T03:48:55.447Z,929.35
2016-11-24T03:50:07.918Z,929.3
2016-11-24T03:51:21.481Z,929.3
2016-11-24T03:52:34.524Z,929.28
2016-11-24T03:53:47.057Z,929.25
2016-11-24T03:55:00.650Z,929.25
2016-11-24T03:56:13.848Z,929.26
2016-11-24T03:57:27.433Z,929.24
2016-11-24T03:58:40.444Z,929.2
2016-11-24T03:59:52.379Z,929.22
2016-11-24T04:01:05.386Z,929.18
2016-11-24T04:02:17.429Z,929.19
2016-11-24T04:03:30.456Z,929.17
2016-11-24T04:04:43.524Z,929.11
2016-11-24T04:05:55.424Z,929.14
2016-11-24T04:07:08.174Z,929.11
2016-11-24T04:08:21.200Z,929.13
2016-11-24T04:09:34.806Z,929.1
2016-11-24T04:10:47.833Z,929.12
2016-11-24T04:12:00.804Z,929.13
2016-11-24T04:13:13.940Z,929.15
2016-11-24T04:14:26.975Z,929.17
2016-11-24T04:15:39.953Z,929.13
2016-11-24T04:16:53.445Z,929.11
2016-11-24T04:18:06.567Z,929.11
2016-11-24T04:19:19.619Z,929.11
2016-11-24T04:20:32.663Z,929.11
2016-11-24T04:21:45.143Z,929.1
2016-11-24T04:22:58.704Z,929.12
2016-11-24T04:25:56.527Z,929.17
2016-11-24T04:27:10.020Z,929.16
2016-11-24T04:28:23.162Z,929.2
2016-11-24T04:29:36.730Z,929.17
2016-11-24T04:30:48.651Z,929.14
2016-11-24T04:32:02.261Z,929.13
2016-11-24T04:33:15.287Z,929.14
2016-11-24T04:34:28.292Z,929.17
2016-11-24T04:35:39.723Z,929.17
2016-11-24T04:36:53.288Z,929.15
2016-11-24T04:38:05.805Z,929.18
2016-11-24T04:39:19.392Z,929.15
2016-11-24T04:40:32.934Z,929.16
2016-11-24T04:42:16.052Z,929.15
2016-11-24T04:43:29.619Z,929.2
2016-11-24T04:44:43.455Z,929.17
2016-11-24T04:45:56.481Z,929.18
2016-11-24T04:47:09.461Z,929.17
2016-11-24T04:48:22.507Z,929.21
2016-11-24T04:49:34.494Z,929.16
2016-11-24T04:50:46.979Z,929.12
2016-11-24T04:52:30.598Z,929.11
2016-11-24T04:53:43.628Z,929.07
2016-11-24T04:54:56.411Z,929.04
2016-11-24T04:56:08.365Z,929.07
2016-11-24T04:57:21.391Z,929.02
2016-11-24T04:58:33.917Z,929.06
2016-11-24T04:59:46.904Z,929.08
2016-11-24T05:01:00.060Z,929.11
2016-11-24T05:02:13.117Z,929.13
2016-11-24T05:03:26.191Z,929.13
2016-11-24T05:04:39.220Z,929.15
2016-11-24T05:05:51.825Z,929.1
2016-11-24T05:07:04.848Z,929.11
2016-11-24T05:08:17.852Z,929.1
2016-11-24T05:09:30.951Z,929.09
2016-11-24T05:10:43.929Z,929.08
2016-11-24T05:11:57.014Z,929.07
2016-11-24T05:13:10.008Z,929.07
2016-11-24T05:14:23.502Z,929.05
2016-11-24T05:16:07.776Z,929.05
2016-11-24T05:17:21.320Z,929.11
2016-11-24T05:18:34.377Z,929.06
2016-11-24T05:19:46.890Z,929.11
2016-11-24T05:21:00.420Z,929.09
2016-11-24T05:22:14.053Z,929.09
2016-11-24T05:23:27.072Z,929.11
2016-11-24T05:24:39.633Z,929.05
2016-11-24T05:25:51.550Z,929.08
2016-11-24T05:27:04.244Z,929.11
2016-11-24T05:28:17.789Z,929.08
2016-11-24T05:29:30.328Z,929.11
2016-11-24T05:30:43.368Z,929.08
2016-11-24T05:31:55.823Z,929.06
2016-11-24T05:33:09.315Z,929.11
2016-11-24T05:34:22.381Z,929.07
2016-11-24T05:35:35.411Z,929.05
2016-11-24T05:36:47.866Z,929.07
2016-11-24T05:38:01.553Z,929.04
2016-11-24T05:39:14.050Z,928.98
2016-11-24T05:40:26.590Z,929
2016-11-24T05:41:39.586Z,929
2016-11-24T05:42:52.592Z,929.02
2016-11-24T05:44:36.913Z,929.04
2016-11-24T05:45:49.994Z,929.03
2016-11-24T05:47:03.125Z,929.03
2016-11-24T05:48:47.960Z,929.04
2016-11-24T05:50:01.512Z,929.07
2016-11-24T05:51:14.040Z,929.02
2016-11-24T05:52:27.662Z,928.99
2016-11-24T05:53:41.263Z,928.99
2016-11-24T05:54:53.753Z,929.04
2016-11-24T05:56:05.720Z,929.01
2016-11-24T05:57:18.187Z,929.02
2016-11-24T05:58:30.112Z,929
2016-11-24T05:59:43.271Z,929
2016-11-24T06:00:56.820Z,929.04
2016-11-24T06:02:09.894Z,929.07
2016-11-24T06:03:22.955Z,929.05
2016-11-24T06:04:35.475Z,929.01
2016-11-24T06:05:48.936Z,929
2016-11-24T06:07:02.487Z,928.98
2016-11-24T06:08:15.437Z,928.98
2016-11-24T06:09:28.499Z,928.99
2016-11-24T06:10:41.665Z,928.98
2016-11-24T06:12:25.811Z,928.97
2016-11-24T06:13:38.894Z,928.99
2016-11-24T06:14:52.465Z,928.96
2016-11-24T06:16:05.062Z,928.99
2016-11-24T06:17:18.073Z,929.01
2016-11-24T06:18:31.134Z,929.03
2016-11-24T06:19:44.227Z,929.02
2016-11-24T06:20:56.719Z,929.01
2016-11-24T06:22:09.919Z,929.03
2016-11-24T06:23:22.450Z,929.01
2016-11-24T06:24:35.456Z,929.06
2016-11-24T06:25:47.466Z,929.04
2016-11-24T06:27:00.156Z,929.06
2016-11-24T06:28:13.274Z,929.07
2016-11-24T06:29:26.855Z,929.03
2016-11-24T06:30:39.386Z,929.03
2016-11-24T06:31:51.929Z,929.05
2016-11-24T06:33:35.581Z,929.04
2016-11-24T06:34:48.104Z,929.04
2016-11-24T06:36:01.605Z,929.03
2016-11-24T06:37:14.869Z,929.02
2016-11-24T06:38:27.950Z,929.04
2016-11-24T06:39:41.509Z,929.03
2016-11-24T06:40:54.538Z,929.03
2016-11-24T06:42:06.507Z,929.09
2016-11-24T06:43:20.163Z,929.07
2016-11-24T06:44:32.634Z,929.12
2016-11-24T06:45:44.625Z,929.1
2016-11-24T06:47:28.872Z,929.15
2016-11-24T06:48:42.423Z,929.1
2016-11-24T06:49:55.484Z,929.09
2016-11-24T06:51:08.610Z,929.11
2016-11-24T06:52:21.089Z,929.14
2016-11-24T06:53:34.841Z,929.12
2016-11-24T06:54:47.908Z,929.12
2016-11-24T06:56:00.434Z,929.09
2016-11-24T06:57:13.427Z,929.08
2016-11-24T06:58:26.072Z,929.09
2016-11-24T06:59:39.652Z,929.08
2016-11-24T07:00:52.697Z,929.13
2016-11-24T07:02:05.222Z,929.13
2016-11-24T07:03:18.399Z,929.12
2016-11-24T07:04:31.957Z,929.18
2016-11-24T07:05:43.482Z,929.17
2016-11-24T07:06:57.098Z,929.19
2016-11-24T07:08:10.690Z,929.17
2016-11-24T07:09:23.258Z,929.16
2016-11-24T07:10:36.238Z,929.15
2016-11-24T07:11:47.683Z,929.14
2016-11-24T07:13:00.210Z,929.12
2016-11-24T07:14:13.754Z,929.13
2016-11-24T07:15:26.815Z,929.11
2016-11-24T07:16:39.851Z,929.12
2016-11-24T07:17:52.405Z,929.12
2016-11-24T07:19:04.888Z,929.13
2016-11-24T07:20:17.444Z,929.09
2016-11-24T07:21:30.978Z,929.12
2016-11-24T07:22:43.948Z,929.09
2016-11-24T07:23:56.933Z,929.16
2016-11-24T07:25:10.488Z,929.1
2016-11-24T07:26:23.899Z,929.05
2016-11-24T07:27:36.930Z,929.03
2016-11-24T07:28:50.481Z,929.01
2016-11-24T07:30:03.974Z,929.02
2016-11-24T07:31:17.591Z,928.98
2016-11-24T07:34:45.223Z,929
2016-11-24T07:36:29.530Z,928.99
2016-11-24T07:37:42.010Z,928.97
2016-11-24T07:38:55.601Z,929.01
2016-11-24T07:40:08.083Z,929.02
2016-11-24T07:41:20.597Z,929.08
2016-11-24T07:42:33.725Z,929.04
2016-11-24T07:43:46.194Z,929.06
2016-11-24T07:44:59.216Z,929.07
2016-11-24T07:46:11.699Z,929.12
2016-11-24T07:47:24.278Z,929.1
2016-11-24T07:48:37.248Z,929.13
2016-11-24T07:49:50.795Z,929.12
2016-11-24T07:51:03.794Z,929.1
2016-11-24T07:52:16.736Z,929.16
2016-11-24T07:53:29.689Z,929.16
2016-11-24T07:54:43.247Z,929.2
2016-11-24T07:56:27.872Z,929.25
2016-11-24T07:57:41.548Z,929.3
2016-11-24T07:58:54.045Z,929.33
2016-11-24T08:00:07.073Z,929.31
2016-11-24T08:01:19.506Z,929.33
2016-11-24T08:02:33.022Z,929.33
2016-11-24T08:03:46.069Z,929.37
2016-11-24T08:04:59.584Z,929.41
2016-11-24T08:06:12.008Z,929.39
2016-11-24T08:07:24.955Z,929.42
2016-11-24T08:08:38.044Z,929.43
2016-11-24T08:09:50.428Z,929.42
2016-11-24T08:11:34.537Z,929.49
2016-11-24T08:12:47.022Z,929.52
2016-11-24T08:14:00.749Z,929.53
2016-11-24T08:15:13.850Z,929.56
2016-11-24T08:16:26.367Z,929.59
2016-11-24T08:17:39.385Z,929.61
2016-11-24T08:18:51.312Z,929.63
2016-11-24T08:20:04.552Z,929.67
2016-11-24T08:21:17.581Z,929.7
2016-11-24T08:22:31.095Z,929.66
2016-11-24T08:23:44.077Z,929.72
2016-11-24T08:24:56.680Z,929.7
2016-11-24T08:26:10.172Z,929.71
2016-11-24T08:27:23.207Z,929.71
2016-11-24T08:28:36.279Z,929.69
2016-11-24T08:29:48.227Z,929.7
2016-11-24T08:31:01.812Z,929.71
2016-11-24T08:32:14.848Z,929.71
2016-11-24T08:33:28.446Z,929.72
2016-11-24T08:34:40.867Z,929.77
2016-11-24T08:35:54.029Z,929.82
2016-11-24T08:37:06.515Z,929.81
2016-11-24T08:38:19.456Z,929.84
2016-11-24T08:39:31.374Z,929.8
2016-11-24T08:40:44.406Z,929.84
2016-11-24T08:41:56.849Z,929.84
2016-11-24T08:43:09.284Z,929.87
2016-11-24T08:44:22.930Z,929.88
2016-11-24T08:45:35.460Z,929.88
2016-11-24T08:46:49.077Z,929.92
2016-11-24T08:48:00.940Z,929.93
2016-11-24T08:49:12.835Z,929.98
2016-11-24T08:50:26.324Z,930
2016-11-24T08:51:39.869Z,929.99
2016-11-24T08:52:53.353Z,929.98
2016-11-24T08:54:05.332Z,930
2016-11-24T08:55:18.797Z,929.99
2016-11-24T08:56:31.776Z,930.01
2016-11-24T08:57:44.832Z,930.01
2016-11-24T08:58:58.329Z,930.02
2016-11-24T09:00:10.758Z,930.06
2016-11-24T09:01:24.274Z,930.1
2016-11-24T09:02:36.747Z,930.06
2016-11-24T09:03:49.724Z,930.09
2016-11-24T09:05:02.805Z,930.1
2016-11-24T09:06:15.301Z,930.08
2016-11-24T09:07:28.402Z,930.18
2016-11-24T09:08:41.009Z,930.27
2016-11-24T09:09:53.523Z,930.29
2016-11-24T09:11:06.023Z,930.34
2016-11-24T09:12:19.515Z,930.37
2016-11-24T09:13:32.540Z,930.42
2016-11-24T09:14:45.815Z,930.45
2016-11-24T09:15:58.334Z,930.51
2016-11-24T09:17:10.734Z,930.56
2016-11-24T09:18:23.273Z,930.67
2016-11-24T09:19:36.700Z,930.75
2016-11-24T09:20:49.730Z,930.8
2016-11-24T09:22:03.227Z,930.77
2016-11-24T09:23:16.256Z,930.78
2016-11-24T09:24:29.243Z,930.86
2016-11-24T09:25:42.357Z,930.96
2016-11-24T09:26:54.780Z,930.97
2016-11-24T09:28:08.335Z,930.91
2016-11-24T09:29:20.828Z,930.93
2016-11-24T09:30:33.000Z,930.9
2016-11-24T09:31:45.544Z,930.92
2016-11-24T09:32:57.025Z,930.86
2016-11-24T09:34:10.119Z,930.9
2016-11-24T09:35:22.583Z,930.93
2016-11-24T09:36:35.385Z,930.85
2016-11-24T09:37:48.889Z,931.04
2016-11-24T09:40:46.404Z,930.89
2016-11-24T09:41:58.371Z,931.13
2016-11-24T09:43:11.452Z,931.13
2016-11-24T09:44:24.396Z,931.11
2016-11-24T09:45:37.886Z,931.13
2016-11-24T09:46:51.402Z,931.07
2016-11-24T09:48:04.903Z,931.07
2016-11-24T09:49:17.317Z,931.1
2016-11-24T09:50:29.848Z,931.09
2016-11-24T09:51:43.549Z,931.1
2016-11-24T09:52:56.098Z,931.14
2016-11-24T09:54:08.080Z,931.08
2016-11-24T09:55:21.145Z,931.11
2016-11-24T09:56:34.710Z,931.1
2016-11-24T09:57:47.698Z,931.13
2016-11-24T09:59:00.728Z,931.16
2016-11-24T10:00:13.788Z,931.21
2016-11-24T10:01:26.314Z,931.13
2016-11-24T10:02:39.983Z,931.13
2016-11-24T10:03:52.989Z,931.13
2016-11-24T10:05:04.451Z,931.14
2016-11-24T10:06:15.841Z,931.15
2016-11-24T10:08:00.101Z,931.21
2016-11-24T10:09:13.090Z,931.18
2016-11-24T10:10:26.178Z,931.21
2016-11-24T10:11:39.664Z,931.23
2016-11-24T10:12:53.186Z,931.23
2016-11-24T10:14:06.270Z,931.24
2016-11-24T10:15:20.022Z,931.27
2016-11-24T10:16:33.221Z,931.29
2016-11-24T10:17:45.714Z,931.3
2016-11-24T10:18:58.337Z,931.26
2016-11-24T10:20:11.850Z,931.28
2016-11-24T10:21:25.545Z,931.31
2016-11-24T10:22:38.585Z,931.3
2016-11-24T10:23:52.139Z,931.35
2016-11-24T10:25:05.354Z,931.38
2016-11-24T10:26:19.111Z,931.43
2016-11-24T10:27:32.138Z,931.42
2016-11-24T10:28:45.127Z,931.37
2016-11-24T10:29:58.359Z,931.35
2016-11-24T10:31:11.135Z,931.29
2016-11-24T10:32:24.192Z,931.32
2016-11-24T10:33:37.192Z,931.07
2016-11-24T10:34:50.708Z,931.44
2016-11-24T10:36:04.508Z,931.5
2016-11-24T10:37:17.656Z,931.48
2016-11-24T10:38:31.353Z,931.55
2016-11-24T10:39:44.363Z,931.28
2016-11-24T10:40:57.125Z,931.6
2016-11-24T10:42:10.203Z,931.59
2016-11-24T10:43:22.238Z,931.66
2016-11-24T10:44:35.244Z,931.7
2016-11-24T10:45:48.247Z,931.73
2016-11-24T10:47:00.809Z,931.82
2016-11-24T10:48:13.521Z,931.73
2016-11-24T10:49:27.074Z,931.73
2016-11-24T10:50:39.546Z,931.76
2016-11-24T10:51:52.895Z,931.68
2016-11-24T10:53:05.508Z,931.4
2016-11-24T10:54:18.961Z,931.41
2016-11-24T10:55:32.483Z,931.47
2016-11-24T10:56:44.970Z,931.29
2016-11-24T10:57:58.562Z,931.26
2016-11-24T10:59:12.071Z,931.37
2016-11-24T11:00:24.595Z,931.31
2016-11-24T11:01:38.142Z,931.63
2016-11-24T11:02:51.323Z,931.61
2016-11-24T11:04:03.306Z,931.67
2016-11-24T11:05:16.801Z,931.55
2016-11-24T11:06:30.312Z,931.51
2016-11-24T11:07:41.728Z,931.49
2016-11-24T11:08:54.003Z,931.52
2016-11-24T11:10:08.025Z,931.53
2016-11-24T11:11:22.073Z,931.53
2016-11-24T11:12:35.651Z,931.52
2016-11-24T11:13:48.791Z,931.57
2016-11-24T11:15:00.821Z,931.6
2016-11-24T11:16:14.435Z,931.57
2016-11-24T11:17:27.950Z,931.6
2016-11-24T11:18:41.487Z,931.6
2016-11-24T11:19:54.545Z,931.62
2016-11-24T11:21:07.762Z,931.67
2016-11-24T11:22:21.273Z,931.71
2016-11-24T11:23:33.742Z,931.66
2016-11-24T11:24:45.976Z,931.71
2016-11-24T11:25:59.087Z,931.57
2016-11-24T11:27:12.671Z,931.78
2016-11-24T11:28:25.670Z,931.71
2016-11-24T11:29:38.670Z,931.67
2016-11-24T11:30:51.733Z,931.73
2016-11-24T11:32:04.199Z,931.79
2016-11-24T11:33:16.786Z,931.78
2016-11-24T11:34:30.275Z,931.66
2016-11-24T11:35:42.863Z,932.13
2016-11-24T11:36:56.460Z,932.21
2016-11-24T11:38:09.483Z,932.26
2016-11-24T11:39:22.589Z,932.25
2016-11-24T11:40:35.592Z,932.14
2016-11-24T11:41:48.717Z,932.09
2016-11-24T11:43:02.342Z,931.96
2016-11-24T11:44:15.831Z,932
2016-11-24T11:45:28.907Z,931.98
2016-11-24T11:46:42.012Z,931.91
2016-11-24T11:47:55.139Z,931.89
2016-11-24T11:49:08.335Z,931.88
2016-11-24T11:50:20.833Z,932.06
2016-11-24T11:51:34.471Z,932.15
2016-11-24T11:52:46.650Z,932.09
2016-11-24T11:53:59.147Z,931.92
2016-11-24T11:55:12.079Z,931.87
2016-11-24T11:56:25.826Z,931.85
2016-11-24T11:57:39.511Z,931.86
2016-11-24T11:58:52.782Z,931.71
2016-11-24T12:00:06.326Z,931.75
2016-11-24T12:01:19.847Z,931.66
2016-11-24T12:02:32.327Z,931.85
2016-11-24T12:03:45.536Z,931.99
2016-11-24T12:05:00.476Z,932.01
2016-11-24T12:06:13.013Z,931.85
2016-11-24T12:07:24.919Z,932.03
2016-11-24T12:08:38.664Z,931.94
2016-11-24T12:09:51.109Z,932.03
2016-11-24T12:11:03.024Z,931.97
2016-11-24T12:12:16.898Z,931.94
2016-11-24T12:13:29.950Z,931.89
2016-11-24T12:14:42.413Z,931.84
2016-11-24T12:15:55.469Z,931.86
2016-11-24T12:17:09.083Z,931.85
2016-11-24T12:18:22.117Z,931.88
2016-11-24T12:19:35.782Z,931.97
2016-11-24T12:20:48.907Z,932.11
2016-11-24T12:22:02.021Z,932.09
2016-11-24T12:23:14.521Z,932.07
2016-11-24T12:24:27.504Z,932.01
2016-11-24T12:25:40.506Z,932.1
2016-11-24T12:26:54.085Z,931.95
2016-11-24T12:28:07.677Z,931.94
2016-11-24T12:29:20.141Z,931.97
2016-11-24T12:31:03.485Z,932.14
2016-11-24T12:32:17.077Z,932.1
2016-11-24T12:33:30.078Z,931.97
2016-11-24T12:34:41.541Z,931.89
2016-11-24T12:35:54.706Z,931.82
2016-11-24T12:37:08.247Z,931.89
2016-11-24T12:38:21.823Z,931.92
2016-11-24T12:39:35.304Z,931.9
2016-11-24T12:40:47.196Z,931.85
2016-11-24T12:42:00.402Z,931.92
2016-11-24T12:43:12.903Z,931.8
2016-11-24T12:44:26.495Z,931.97
2016-11-24T12:45:39.468Z,932.06
2016-11-24T12:46:51.533Z,932.07
2016-11-24T12:48:04.586Z,931.89
2016-11-24T12:49:18.183Z,931.86
2016-11-24T12:50:30.656Z,931.86
2016-11-24T12:51:43.661Z,931.9
2016-11-24T12:53:27.846Z,932
2016-11-24T12:54:40.296Z,931.96
2016-11-24T12:55:53.293Z,931.96
2016-11-24T12:57:06.435Z,931.92
2016-11-24T12:58:18.933Z,931.85
2016-11-24T12:59:31.913Z,931.87
2016-11-24T13:00:44.392Z,931.88
2016-11-24T13:01:56.906Z,931.87
2016-11-24T13:03:10.039Z,931.88
2016-11-24T13:04:23.042Z,931.79
2016-11-24T13:05:35.477Z,931.82
2016-11-24T13:06:47.461Z,931.81
2016-11-24T13:08:00.418Z,931.75
2016-11-24T13:09:13.388Z,931.87
2016-11-24T13:10:26.913Z,931.83
2016-11-24T13:11:40.419Z,931.86
2016-11-24T13:12:52.341Z,931.8
2016-11-24T13:14:05.318Z,931.85
2016-11-24T13:15:18.279Z,931.87
2016-11-24T13:16:31.239Z,931.82
2016-11-24T13:17:44.225Z,931.78
2016-11-24T13:18:57.308Z,931.86
2016-11-24T13:20:10.300Z,931.81
2016-11-24T13:21:54.425Z,931.78
2016-11-24T13:23:07.960Z,931.8
2016-11-24T13:24:22.308Z,931.73
2016-11-24T13:25:35.781Z,931.8
2016-11-24T13:26:48.288Z,931.91
2016-11-24T13:28:01.385Z,931.91
2016-11-24T13:29:14.357Z,931.83
2016-11-24T13:30:28.074Z,931.8
2016-11-24T13:31:41.054Z,931.86
2016-11-24T13:32:54.606Z,931.76
2016-11-24T13:34:07.637Z,931.92
2016-11-24T13:35:21.523Z,931.95
2016-11-24T13:36:34.563Z,931.92
2016-11-24T13:37:47.519Z,931.87
2016-11-24T13:39:00.663Z,931.76
2016-11-24T13:40:14.386Z,931.93
2016-11-24T13:41:26.825Z,931.85
2016-11-24T13:42:40.716Z,931.87
2016-11-24T13:43:53.837Z,931.88
2016-11-24T13:45:38.123Z,931.78
2016-11-24T13:46:52.482Z,931.79
2016-11-24T13:48:05.069Z,931.77
2016-11-24T13:49:19.435Z,931.74
2016-11-24T13:50:33.006Z,931.83
2016-11-24T13:51:45.223Z,931.73
2016-11-24T13:52:57.213Z,931.65
2016-11-24T13:54:10.223Z,931.65
2016-11-24T13:55:22.277Z,931.62
2016-11-24T13:56:37.907Z,931.63
2016-11-24T13:57:50.660Z,931.7
2016-11-24T13:59:04.330Z,931.7
2016-11-24T14:02:01.589Z,931.66
2016-11-24T14:03:13.998Z,931.63
2016-11-24T14:04:27.081Z,931.62
2016-11-24T14:05:40.076Z,931.58
2016-11-24T14:06:53.816Z,931.59
2016-11-24T14:08:06.424Z,931.71
2016-11-24T14:09:18.413Z,931.64
2016-11-24T14:11:02.017Z,931.62
2016-11-24T14:12:15.135Z,931.68
2016-11-24T14:13:28.656Z,931.63
2016-11-24T14:14:41.079Z,931.62
2016-11-24T14:15:53.698Z,931.63
2016-11-24T14:17:06.655Z,931.75
2016-11-24T14:18:20.264Z,931.74
2016-11-24T14:19:33.831Z,931.72
2016-11-24T14:20:46.853Z,931.66
2016-11-24T14:21:59.616Z,931.63
2016-11-24T14:23:13.656Z,931.62
2016-11-24T14:24:26.328Z,931.62
2016-11-24T14:25:37.720Z,931.66
2016-11-24T14:27:21.295Z,931.6
2016-11-24T14:28:33.839Z,931.62
2016-11-24T14:29:46.851Z,931.5
2016-11-24T14:31:00.392Z,931.56
2016-11-24T14:32:13.388Z,931.56
2016-11-24T14:33:25.830Z,931.67
2016-11-24T14:34:38.939Z,931.51
2016-11-24T14:35:51.925Z,931.51
2016-11-24T14:37:05.218Z,931.47
2016-11-24T14:38:18.226Z,931.55
2016-11-24T14:39:31.927Z,931.45
2016-11-24T14:40:44.378Z,931.47
2016-11-24T14:41:57.327Z,931.52
2016-11-24T14:43:10.304Z,931.54
2016-11-24T14:44:23.979Z,931.54
2016-11-24T14:45:37.098Z,931.64
2016-11-24T14:46:50.562Z,931.62
2016-11-24T14:48:04.691Z,931.67
2016-11-24T14:49:18.202Z,931.58
2016-11-24T14:50:30.756Z,931.55
2016-11-24T14:51:44.337Z,931.51
2016-11-24T14:52:57.370Z,931.52
2016-11-24T14:54:11.282Z,931.56
2016-11-24T14:55:24.823Z,931.63
2016-11-24T14:56:37.224Z,931.72
2016-11-24T14:57:49.739Z,931.76
2016-11-24T14:59:02.768Z,931.77
2016-11-24T15:00:14.720Z,931.62
2016-11-24T15:01:27.801Z,931.45
2016-11-24T15:02:40.310Z,931.31
2016-11-24T15:03:52.849Z,931.21
2016-11-24T15:05:05.278Z,931.18
2016-11-24T15:06:18.284Z,931.17
2016-11-24T15:07:30.742Z,931.21
2016-11-24T15:08:44.304Z,931.2
2016-11-24T15:09:57.794Z,931.23
2016-11-24T15:11:11.431Z,931.29
2016-11-24T15:12:24.602Z,931.45
2016-11-24T15:13:37.117Z,931.29
2016-11-24T15:14:50.214Z,931.35
2016-11-24T15:16:03.795Z,931.27
2016-11-24T15:17:16.832Z,931.31
2016-11-24T15:18:29.910Z,931.06
2016-11-24T15:19:43.456Z,931.07
2016-11-24T15:20:56.937Z,931.04
2016-11-24T15:22:09.502Z,930.89
2016-11-24T15:23:21.997Z,930.9
2016-11-24T15:24:35.541Z,930.86
2016-11-24T15:25:49.110Z,930.78
2016-11-24T15:27:33.143Z,930.84
2016-11-24T15:28:46.810Z,930.86
2016-11-24T15:30:00.314Z,930.78
2016-11-24T15:31:13.301Z,930.9
2016-11-24T15:32:26.889Z,930.82
2016-11-24T15:33:39.935Z,930.61
2016-11-24T15:34:53.004Z,930.34
2016-11-24T15:36:04.917Z,930.32
2016-11-24T15:37:17.969Z,930.35
2016-11-24T15:38:30.911Z,930.42
2016-11-24T15:39:43.486Z,930.46